| time (UTC) | temp F | wind direction | speed knots | gust knots | rain 1hr in | rain 24hr in | rain mn in | humidity % | barometer mb |
| 20260506112705 | 44 | 311 | 0.0 | 0.0 | 0.00 | 1.23 | 0.25 | 96 | 1009.0 |
| 20260506112204 | 44 | 311 | 0.0 | 0.9 | 0.00 | 1.23 | 0.25 | 96 | 1009.0 |
| 20260506111705 | 44 | 311 | 0.0 | 0.0 | 0.00 | 1.23 | 0.25 | 96 | 1008.9 |
| 20260506111204 | 44 | 311 | 0.9 | 2.6 | 0.00 | 1.23 | 0.25 | 96 | 1008.9 |
| 20260506110704 | 44 | 312 | 1.7 | 2.6 | 0.00 | 1.23 | 0.25 | 96 | 1008.5 |
| 20260506110205 | 44 | 328 | 0.9 | 1.7 | 0.00 | 1.23 | 0.25 | 96 | 1008.5 |
| 20260506105704 | 44 | 328 | 0.0 | 0.9 | 0.00 | 1.23 | 0.25 | 96 | 1008.5 |
| 20260506105205 | 44 | 328 | 0.9 | 2.6 | 0.00 | 1.23 | 0.25 | 96 | 1008.5 |
| 20260506104704 | 44 | 330 | 0.9 | 2.6 | 0.00 | 1.23 | 0.25 | 96 | 1008.4 |
| 20260506103704 | 44 | 324 | 1.7 | 5.2 | 0.00 | 1.23 | 0.25 | 96 | 1008.5 |
| 20260506103204 | 44 | 310 | 1.7 | 4.3 | 0.00 | 1.23 | 0.25 | 96 | 1008.5 |
| 20260506102204 | 44 | 320 | 0.9 | 5.2 | 0.01 | 1.23 | 0.25 | 96 | 1008.5 |
| 20260506101704 | 44 | 313 | 2.6 | 5.2 | 0.01 | 1.23 | 0.25 | 96 | 1008.5 |
| 20260506101204 | 44 | 313 | 0.9 | 2.6 | 0.02 | 1.23 | 0.25 | 96 | 1008.5 |
| 20260506100704 | 44 | 320 | 0.0 | 0.0 | 0.02 | 1.23 | 0.25 | 96 | 1008.5 |
| 20260506100204 | 44 | 320 | 0.0 | 0.0 | 0.02 | 1.23 | 0.25 | 96 | 1008.5 |
| 20260506095704 | 44 | 320 | 0.0 | 0.9 | 0.02 | 1.23 | 0.25 | 96 | 1008.5 |
| 20260506094704 | 44 | 320 | 0.0 | 0.9 | 0.02 | 1.23 | 0.25 | 96 | 1008.5 |
| 20260506094204 | 44 | 320 | 0.0 | 0.9 | 0.02 | 1.23 | 0.25 | 96 | 1008.5 |
| 20260506093705 | 44 | 320 | 0.0 | 0.0 | 0.03 | 1.23 | 0.25 | 96 | 1008.5 |
| 20260506093204 | 44 | 320 | 1.7 | 5.2 | 0.03 | 1.23 | 0.25 | 96 | 1008.5 |
| 20260506092704 | 44 | 313 | 2.6 | 5.2 | 0.02 | 1.22 | 0.24 | 96 | 1008.5 |
| 20260506091704 | 44 | 313 | 3.5 | 7.0 | 0.03 | 1.22 | 0.24 | 96 | 1008.5 |
| 20260506091204 | 44 | 315 | 4.3 | 7.0 | 0.03 | 1.21 | 0.23 | 96 | 1008.5 |
| 20260506085704 | 45 | 331 | 4.3 | 7.8 | 0.05 | 1.21 | 0.23 | 96 | 1008.4 |
| 20260506084704 | 45 | 315 | 5.2 | 8.7 | 0.07 | 1.21 | 0.23 | 96 | 1008.2 |
| 20260506084204 | 45 | 346 | 0.9 | 10.4 | 0.08 | 1.21 | 0.23 | 96 | 1008.0 |
| 20260506083705 | 45 | 318 | 1.7 | 7.8 | 0.08 | 1.20 | 0.22 | 96 | 1008.1 |
| 20260506083204 | 45 | 320 | 1.7 | 6.1 | 0.08 | 1.20 | 0.22 | 96 | 1008.1 |
| 20260506081704 | 45 | 310 | 0.0 | 0.9 | 0.09 | 1.19 | 0.21 | 96 | 1008.4 |
| 20260506081205 | 45 | 309 | 0.0 | 0.0 | 0.09 | 1.18 | 0.20 | 96 | 1008.4 |
| 20260506080704 | 45 | 309 | 0.0 | 0.9 | 0.08 | 1.17 | 0.19 | 96 | 1008.4 |
| 20260506080204 | 45 | 309 | 0.0 | 0.9 | 0.07 | 1.16 | 0.18 | 96 | 1008.2 |
| 20260506073205 | 45 | 313 | 0.0 | 0.0 | 0.04 | 1.13 | 0.14 | 96 | 1008.2 |
| 20260506072705 | 45 | 315 | 0.0 | 0.0 | 0.03 | 1.12 | 0.13 | 96 | 1008.2 |
| 20260506072204 | 45 | 337 | 0.0 | 0.0 | 0.03 | 1.12 | 0.13 | 96 | 1008.2 |
| 20260506071705 | 45 | 317 | 0.0 | 0.0 | 0.02 | 1.11 | 0.12 | 96 | 1008.2 |
| 20260506062204 | 45 | 328 | 0.0 | 0.0 | 0.03 | 1.09 | 0.10 | 95 | 1008.3 |
| 20260506061705 | 45 | 328 | 0.0 | 0.0 | 0.04 | 1.09 | 0.10 | 95 | 1008.3 |
| 20260506061205 | 45 | 328 | 0.0 | 0.0 | 0.03 | 1.08 | 0.09 | 95 | 1008.3 |
| 20260506060705 | 45 | 12 | 0.0 | 0.0 | 0.04 | 1.08 | 0.09 | 95 | 1008.6 |
| 20260506060204 | 45 | 13 | 0.0 | 0.0 | 0.04 | 1.08 | 0.09 | 95 | 1008.6 |
| 20260506051204 | 45 | 13 | 0.0 | 0.0 | 0.06 | 1.05 | 0.06 | 95 | 1008.8 |
| 20260506050704 | 45 | 13 | 0.0 | 0.0 | 0.05 | 1.04 | 0.05 | 95 | 1008.8 |
| 20260506050205 | 45 | 13 | 0.0 | 0.0 | 0.05 | 1.04 | 0.05 | 95 | 1008.8 |
| 20260506044704 | 46 | 13 | 0.0 | 0.0 | 0.04 | 1.02 | 0.03 | 95 | 1008.9 |
| 20260506043704 | 46 | 11 | 0.0 | 0.0 | 0.04 | 1.01 | 0.02 | 95 | 1008.9 |
| 20260506042705 | 46 | 11 | 0.0 | 0.9 | 0.04 | 1.00 | 0.01 | 95 | 1009.0 |
| 20260506042205 | 46 | 11 | 0.9 | 4.3 | 0.04 | 1.00 | 0.01 | 95 | 1009.0 |
| 20260506041704 | 47 | 20 | 0.0 | 2.6 | 0.05 | 1.00 | 0.01 | 95 | 1009.0 |
| 20260506041204 | 47 | 47 | 2.6 | 7.0 | 0.05 | 0.99 | 0.00 | 96 | 1009.5 |
| 20260506035705 | 47 | 323 | 0.0 | 0.9 | 0.07 | 0.98 | 0.98 | 96 | 1009.5 |
| 20260506034704 | 47 | 343 | 1.7 | 6.1 | 0.09 | 0.98 | 0.98 | 95 | 1009.5 |
| 20260506034205 | 47 | 321 | 0.9 | 6.1 | 0.10 | 0.97 | 0.97 | 95 | 1009.5 |
| 20260506033704 | 48 | 296 | 1.7 | 7.0 | 0.11 | 0.97 | 0.97 | 96 | 1009.5 |
| 20260506033204 | 48 | 316 | 4.3 | 7.8 | 0.12 | 0.97 | 0.97 | 96 | 1009.5 |
| 20260506032704 | 48 | 317 | 1.7 | 4.3 | 0.13 | 0.96 | 0.96 | 96 | 1009.5 |
| 20260506032205 | 48 | 318 | 1.7 | 6.1 | 0.14 | 0.96 | 0.96 | 95 | 1009.5 |
| 20260506031705 | 48 | 313 | 1.7 | 4.3 | 0.14 | 0.95 | 0.95 | 95 | 1009.5 |
| 20260506031204 | 48 | 311 | 2.6 | 5.2 | 0.15 | 0.94 | 0.94 | 96 | 1009.5 |
| 20260506025705 | 48 | 308 | 1.7 | 4.3 | 0.14 | 0.91 | 0.91 | 96 | 1009.6 |
| 20260506025205 | 48 | 312 | 1.7 | 2.6 | 0.14 | 0.90 | 0.90 | 96 | 1009.3 |
| 20260506024704 | 48 | 309 | 1.7 | 2.6 | 0.13 | 0.89 | 0.89 | 96 | 1009.3 |
| 20260506023704 | 48 | 13 | 0.0 | 0.9 | 0.13 | 0.86 | 0.86 | 95 | 1008.9 |
| 20260506023205 | 48 | 0 | 0.0 | 1.7 | 0.12 | 0.85 | 0.85 | 95 | 1008.9 |
| 20260506022704 | 48 | 351 | 0.0 | 0.9 | 0.11 | 0.83 | 0.83 | 95 | 1008.9 |
| 20260506021704 | 49 | 348 | 0.0 | 1.7 | 0.10 | 0.81 | 0.81 | 95 | 1008.9 |
| 20260506021204 | 48 | 13 | 0.0 | 1.7 | 0.08 | 0.79 | 0.79 | 95 | 1008.9 |
| 20260506020705 | 48 | 17 | 0.0 | 1.7 | 0.07 | 0.78 | 0.78 | 95 | 1008.9 |
| 20260506015705 | 49 | 42 | 0.0 | 1.7 | 0.06 | 0.77 | 0.77 | 95 | 1008.9 |
| 20260506015204 | 49 | 32 | 0.0 | 1.7 | 0.06 | 0.76 | 0.76 | 95 | 1008.9 |
| 20260506014704 | 49 | 30 | 0.0 | 0.0 | 0.06 | 0.76 | 0.76 | 95 | 1008.9 |
| 20260506014205 | 49 | 30 | 0.0 | 0.9 | 0.06 | 0.74 | 0.74 | 95 | 1008.9 |
| 20260506013704 | 49 | 31 | 0.0 | 0.9 | 0.05 | 0.73 | 0.73 | 95 | 1008.9 |
| 20260506013204 | 49 | 31 | 0.0 | 0.9 | 0.06 | 0.73 | 0.73 | 95 | 1008.9 |
| 20260506012705 | 49 | 31 | 0.0 | 1.7 | 0.06 | 0.72 | 0.72 | 95 | 1008.7 |
| 20260506012205 | 49 | 29 | 0.9 | 1.7 | 0.08 | 0.72 | 0.72 | 95 | 1008.7 |
| 20260506011704 | 49 | 32 | 0.0 | 0.0 | 0.08 | 0.71 | 0.71 | 95 | 1008.7 |
| 20260506010704 | 49 | 32 | 0.0 | 1.7 | 0.09 | 0.71 | 0.71 | 95 | 1008.6 |
| 20260506005704 | 49 | 304 | 0.0 | 0.0 | 0.10 | 0.71 | 0.71 | 95 | 1008.6 |
| 20260506005204 | 49 | 299 | 0.0 | 1.7 | 0.09 | 0.70 | 0.70 | 95 | 1008.6 |
| 20260506004204 | 49 | 22 | 0.0 | 0.0 | 0.07 | 0.68 | 0.68 | 95 | 1009.0 |
| 20260506003704 | 49 | 52 | 0.0 | 0.0 | 0.07 | 0.68 | 0.68 | 95 | 1008.6 |
| 20260506003204 | 49 | 4 | 0.0 | 0.0 | 0.06 | 0.67 | 0.67 | 95 | 1008.6 |
| 20260506002204 | 49 | 59 | 0.0 | 0.0 | 0.03 | 0.64 | 0.64 | 95 | 1008.1 |
| 20260506001704 | 49 | 60 | 0.0 | 0.0 | 0.02 | 0.63 | 0.63 | 95 | 1008.1 |
| 20260506001205 | 49 | 45 | 0.0 | 0.0 | 0.02 | 0.62 | 0.62 | 95 | 1008.2 |
| 20260506000704 | 49 | 89 | 0.0 | 0.0 | 0.02 | 0.62 | 0.62 | 95 | 1008.2 |
| 20260505235204 | 49 | 38 | 0.0 | 0.0 | 0.05 | 0.61 | 0.61 | 95 | 1008.3 |
| 20260505234705 | 49 | 34 | 0.0 | 0.0 | 0.07 | 0.61 | 0.61 | 95 | 1008.3 |
| 20260505234204 | 49 | 41 | 0.0 | 0.0 | 0.11 | 0.61 | 0.61 | 95 | 1008.3 |
| 20260505233205 | 49 | 36 | 0.0 | 0.0 | 0.13 | 0.61 | 0.61 | 95 | 1008.3 |
| 20260505231704 | 49 | 10 | 0.0 | 0.0 | 0.14 | 0.61 | 0.61 | 94 | 1008.6 |
| 20260505231204 | 49 | 350 | 0.0 | 0.0 | 0.14 | 0.60 | 0.60 | 94 | 1008.6 |
| 20260505230704 | 49 | 11 | 0.0 | 0.0 | 0.15 | 0.60 | 0.60 | 94 | 1008.9 |
| 20260505230204 | 49 | 321 | 0.0 | 0.0 | 0.15 | 0.59 | 0.59 | 94 | 1008.9 |
| 20260505225204 | 49 | 321 | 5.2 | 7.8 | 0.14 | 0.56 | 0.56 | 94 | 1008.9 |
| 20260505224705 | 49 | 319 | 2.6 | 7.0 | 0.14 | 0.54 | 0.54 | 94 | 1008.5 |
| 20260505224204 | 49 | 343 | 0.9 | 6.1 | 0.11 | 0.50 | 0.50 | 94 | 1008.5 |
| 20260505223705 | 49 | 10 | 0.9 | 5.2 | 0.11 | 0.49 | 0.49 | 94 | 1008.5 |
| 20260505223204 | 49 | 331 | 1.7 | 7.0 | 0.11 | 0.48 | 0.48 | 94 | 1008.6 |
| 20260505222704 | 50 | 347 | 2.6 | 7.0 | 0.12 | 0.48 | 0.48 | 93 | 1008.6 |
| 20260505222204 | 50 | 3 | 1.7 | 7.0 | 0.13 | 0.48 | 0.48 | 93 | 1008.6 |
| 20260505221705 | 50 | 5 | 0.9 | 5.2 | 0.13 | 0.47 | 0.47 | 93 | 1008.6 |
| 20260505220704 | 51 | 32 | 2.6 | 6.1 | 0.17 | 0.45 | 0.45 | 93 | 1008.3 |
| 20260505220205 | 51 | 53 | 0.0 | 2.6 | 0.18 | 0.44 | 0.44 | 93 | 1008.1 |
| 20260505215204 | 51 | 324 | 0.0 | 1.7 | 0.20 | 0.42 | 0.42 | 93 | 1008.1 |
| 20260505213704 | 52 | 14 | 0.0 | 1.7 | 0.21 | 0.38 | 0.38 | 93 | 1008.2 |
| 20260505212205 | 52 | 340 | 1.7 | 5.2 | 0.23 | 0.35 | 0.35 | 92 | 1007.8 |
| 20260505211704 | 52 | 300 | 2.6 | 6.1 | 0.23 | 0.34 | 0.34 | 91 | 1007.8 |
| 20260505211204 | 53 | 8 | 2.6 | 7.8 | 0.26 | 0.33 | 0.33 | 91 | 1007.8 |
| 20260505210704 | 54 | 347 | 2.6 | 7.8 | 0.22 | 0.28 | 0.28 | 90 | 1007.8 |
| 20260505210204 | 56 | 332 | 4.3 | 11.3 | 0.21 | 0.26 | 0.26 | 93 | 1007.8 |
| 20260505205205 | 57 | 279 | 0.9 | 4.3 | 0.18 | 0.22 | 0.22 | 93 | 1007.8 |
| 20260505204704 | 57 | 293 | 0.0 | 0.0 | 0.16 | 0.20 | 0.20 | 93 | 1007.9 |
| 20260505203704 | 57 | 266 | 0.0 | 0.9 | 0.15 | 0.17 | 0.17 | 93 | 1007.8 |
| 20260505203204 | 57 | 285 | 4.3 | 6.1 | 0.13 | 0.15 | 0.15 | 92 | 1007.8 |
| 20260505202704 | 57 | 303 | 1.7 | 6.1 | 0.11 | 0.13 | 0.13 | 92 | 1007.6 |
| 20260505202204 | 58 | 291 | 1.7 | 4.3 | 0.11 | 0.12 | 0.12 | 92 | 1007.6 |
| 20260505201704 | 58 | 269 | 0.9 | 5.2 | 0.10 | 0.11 | 0.11 | 92 | 1007.9 |
| 20260505200204 | 58 | 278 | 1.7 | 4.3 | 0.04 | 0.05 | 0.05 | 90 | 1007.9 |
| 20260505195704 | 58 | 275 | 1.7 | 5.2 | 0.04 | 0.05 | 0.05 | 89 | 1007.9 |
| 20260505194205 | 59 | 275 | 3.5 | 7.8 | 0.02 | 0.03 | 0.03 | 88 | 1007.9 |
| 20260505193204 | 59 | 287 | 6.1 | 10.4 | 0.01 | 0.02 | 0.02 | 86 | 1007.9 |
| 20260505192704 | 60 | 288 | 6.1 | 10.4 | 0.01 | 0.02 | 0.02 | 85 | 1007.9 |
| 20260505192205 | 60 | 288 | 6.1 | 11.3 | 0.00 | 0.05 | 0.01 | 84 | 1007.9 |
| 20260505190705 | 62 | 284 | 6.1 | 7.8 | 0.00 | 0.10 | 0.01 | 80 | 1007.9 |
| 20260505190205 | 62 | 283 | 4.3 | 10.4 | 0.00 | 0.10 | 0.01 | 79 | 1007.9 |
| 20260505185205 | 63 | 278 | 4.3 | 7.8 | 0.00 | 0.11 | 0.01 | 77 | 1007.9 |
| 20260505184704 | 63 | 288 | 5.2 | 10.4 | 0.00 | 0.11 | 0.01 | 76 | 1007.9 |
| 20260505184205 | 63 | 233 | 1.7 | 7.8 | 0.00 | 0.11 | 0.01 | 76 | 1007.9 |
| 20260505183705 | 64 | 236 | 4.3 | 10.4 | 0.00 | 0.11 | 0.01 | 74 | 1007.9 |
| 20260505183204 | 63 | 282 | 2.6 | 8.7 | 0.00 | 0.11 | 0.01 | 74 | 1007.9 |
| 20260505182704 | 63 | 251 | 5.2 | 8.7 | 0.00 | 0.11 | 0.01 | 74 | 1008.0 |
| 20260505181705 | 64 | 265 | 5.2 | 11.3 | 0.00 | 0.11 | 0.01 | 73 | 1007.8 |
| 20260505180705 | 64 | 251 | 5.2 | 10.4 | 0.00 | 0.11 | 0.01 | 73 | 1007.8 |
| 20260505180205 | 64 | 276 | 2.6 | 8.7 | 0.00 | 0.11 | 0.01 | 74 | 1007.8 |
| 20260505175704 | 64 | 261 | 2.6 | 10.4 | 0.00 | 0.11 | 0.01 | 73 | 1007.8 |
| 20260505175205 | 64 | 263 | 4.3 | 12.2 | 0.00 | 0.11 | 0.01 | 73 | 1007.8 |
| 20260505174704 | 64 | 271 | 7.8 | 10.4 | 0.00 | 0.11 | 0.01 | 73 | 1007.8 |
| 20260505174204 | 64 | 270 | 6.1 | 15.6 | 0.00 | 0.11 | 0.01 | 73 | 1007.8 |
| 20260505173704 | 64 | 273 | 7.8 | 17.4 | 0.00 | 0.11 | 0.01 | 71 | 1007.8 |
| 20260505173205 | 64 | 272 | 6.1 | 13.0 | 0.00 | 0.11 | 0.01 | 72 | 1007.6 |
| 20260505172704 | 65 | 269 | 6.1 | 10.4 | 0.00 | 0.11 | 0.01 | 71 | 1007.6 |
| 20260505172205 | 65 | 251 | 6.1 | 18.2 | 0.00 | 0.11 | 0.01 | 70 | 1007.7 |
| 20260505171705 | 65 | 276 | 3.5 | 7.8 | 0.00 | 0.11 | 0.01 | 70 | 1007.6 |
| 20260505171204 | 65 | 266 | 6.1 | 15.6 | 0.00 | 0.11 | 0.01 | 70 | 1007.6 |
| 20260505170704 | 65 | 265 | 7.0 | 17.4 | 0.00 | 0.11 | 0.01 | 70 | 1007.5 |
| 20260505170205 | 65 | 275 | 4.3 | 10.4 | 0.00 | 0.11 | 0.01 | 70 | 1007.5 |
| 20260505165704 | 65 | 232 | 6.1 | 13.0 | 0.00 | 0.11 | 0.01 | 69 | 1007.5 |
| 20260505165205 | 65 | 253 | 7.8 | 15.6 | 0.00 | 0.11 | 0.01 | 68 | 1007.5 |
| 20260505164704 | 65 | 231 | 6.1 | 13.9 | 0.00 | 0.11 | 0.01 | 68 | 1007.5 |
| 20260505163705 | 65 | 239 | 4.3 | 17.4 | 0.00 | 0.11 | 0.01 | 67 | 1007.5 |
| 20260505162704 | 66 | 276 | 4.3 | 10.4 | 0.00 | 0.11 | 0.01 | 67 | 1007.5 |
| 20260505161705 | 66 | 282 | 3.5 | 10.4 | 0.00 | 0.11 | 0.01 | 67 | 1007.5 |
| 20260505161205 | 67 | 271 | 5.2 | 10.4 | 0.00 | 0.11 | 0.01 | 67 | 1007.5 |
| 20260505160705 | 67 | 233 | 7.8 | 15.6 | 0.00 | 0.11 | 0.01 | 64 | 1007.4 |
| 20260505153205 | 68 | 233 | 6.1 | 22.6 | 0.00 | 0.11 | 0.01 | 64 | 1006.4 |
| 20260505152704 | 68 | 210 | 4.3 | 10.4 | 0.00 | 0.11 | 0.01 | 65 | 1006.4 |
| 20260505152204 | 67 | 264 | 4.3 | 10.4 | 0.00 | 0.11 | 0.01 | 64 | 1006.4 |
| 20260505151704 | 68 | 256 | 7.0 | 13.9 | 0.00 | 0.11 | 0.01 | 65 | 1006.4 |
| 20260505150704 | 67 | 244 | 9.6 | 19.1 | 0.00 | 0.11 | 0.01 | 63 | 1006.5 |
| 20260505150205 | 67 | 250 | 7.8 | 12.2 | 0.00 | 0.11 | 0.01 | 65 | 1006.5 |
| 20260505140204 | 65 | 243 | 6.1 | 13.0 | 0.00 | 0.11 | 0.01 | 70 | 1006.0 |
| 20260505130205 | 61 | 225 | 5.2 | 10.4 | 0.00 | 0.11 | 0.01 | 76 | 1006.1 |
| 20260505124704 | 61 | 229 | 4.3 | 12.2 | 0.00 | 0.11 | 0.01 | 75 | 1006.1 |
| 20260505124204 | 61 | 193 | 3.5 | 11.3 | 0.00 | 0.11 | 0.01 | 75 | 1006.1 |
| 20260505122205 | 61 | 211 | 5.2 | 15.6 | 0.00 | 0.11 | 0.01 | 74 | 1005.2 |
| 20260505121705 | 61 | 229 | 6.1 | 11.3 | 0.00 | 0.11 | 0.01 | 74 | 1005.2 |
| 20260505121204 | 61 | 241 | 2.6 | 7.8 | 0.00 | 0.11 | 0.01 | 74 | 1005.2 |
| 20260505120705 | 61 | 221 | 1.7 | 6.1 | 0.00 | 0.11 | 0.01 | 74 | 1005.2 |
| 20260505120204 | 61 | 211 | 3.5 | 7.0 | 0.00 | 0.11 | 0.01 | 74 | 1005.2 |
| 20260505115705 | 61 | 228 | 1.7 | 7.0 | 0.00 | 0.11 | 0.01 | 74 | 1004.9 |
| 20260505115204 | 61 | 221 | 1.7 | 10.4 | 0.00 | 0.11 | 0.01 | 74 | 1004.9 |
| 20260505114205 | 61 | 241 | 2.6 | 5.2 | 0.00 | 0.11 | 0.01 | 73 | 1004.4 |
| 20260505113204 | 62 | 218 | 2.6 | 10.4 | 0.00 | 0.11 | 0.01 | 72 | 1004.4 |